Reeds Gap, Pennsylvania
Current Conditions -  °F | °C
As of 2:15 AM on Friday 19 Dec 2014 (Local Time) from KUNV Reporting Station
Overcast Overcast  
Wind Chill: 21°   Ceiling: 1800
Heat Index: 30°   Visibility: 10mi
Dew Point: 24°   Wind: 10mph
Humidity: 77%   Direction: 280°W
Pressure: 30.05"   Gusts: NA
Location:  40.4333°N, 77.5863°W
Report Text: KUNV 190715Z AUTO 28009KT 10SM OVC018 M01/M04 A3005 RMK AO2 T10101045
Loading
Personal Weather Stations






























Interactive Weather Map New forecast layout! Learn more

10-Day Weather Forecast

Advertisements
Track Severe Weather on mobile